createdAt,value
2018-03-11T00:01:34.376Z,6.10
2018-03-11T00:04:02.716Z,4.97
2018-03-11T00:06:30.245Z,7.70
2018-03-11T00:08:57.821Z,5.57
2018-03-11T00:11:25.354Z,4.67
2018-03-11T00:13:52.924Z,6.43
2018-03-11T00:16:20.497Z,4.00
2018-03-11T00:18:48.076Z,7.83
2018-03-11T00:21:15.636Z,3.93
2018-03-11T00:23:43.167Z,3.87
2018-03-11T00:26:10.741Z,5.23
2018-03-11T00:28:38.313Z,4.70
2018-03-11T00:31:05.889Z,4.43
2018-03-11T00:33:33.424Z,5.33
2018-03-11T00:36:00.992Z,4.93
2018-03-11T00:38:28.523Z,7.50
2018-03-11T00:40:56.103Z,8.33
2018-03-11T00:43:23.637Z,8.13
2018-03-11T00:45:51.191Z,5.83
2018-03-11T00:48:18.780Z,5.30
2018-03-11T00:50:46.312Z,6.83
2018-03-11T00:53:13.884Z,8.80
2018-03-11T00:55:41.419Z,7.77
2018-03-11T00:58:09.760Z,6.70
2018-03-11T01:00:37.326Z,7.00
2018-03-11T01:03:04.889Z,9.43
2018-03-11T01:05:32.468Z,9.60
2018-03-11T01:08:00.780Z,10.70
2018-03-11T01:10:28.351Z,6.10
2018-03-11T01:12:55.924Z,10.10
2018-03-11T01:15:23.492Z,7.50
2018-03-11T01:17:51.030Z,8.63
2018-03-11T01:20:18.604Z,5.20
2018-03-11T01:22:46.176Z,4.23
2018-03-11T01:25:13.710Z,5.60
2018-03-11T01:27:41.248Z,5.07
2018-03-11T01:30:08.821Z,4.83
2018-03-11T01:32:36.365Z,6.60
2018-03-11T01:35:04.021Z,5.70
2018-03-11T01:37:31.491Z,6.67
2018-03-11T01:39:59.050Z,9.23
2018-03-11T01:42:26.577Z,6.17
2018-03-11T01:44:54.147Z,4.73
2018-03-11T01:47:22.450Z,4.83
2018-03-11T01:49:50.025Z,5.80
2018-03-11T01:52:17.576Z,5.10
2018-03-11T01:54:45.147Z,5.10
2018-03-11T01:57:12.723Z,3.83
2018-03-11T01:59:40.261Z,8.13
2018-03-11T02:02:07.842Z,3.83
2018-03-11T02:04:35.429Z,3.47
2018-03-11T02:07:02.976Z,4.43
2018-03-11T02:09:30.512Z,3.67
2018-03-11T02:11:58.090Z,4.10
2018-03-11T02:14:25.624Z,3.53
2018-03-11T02:16:53.165Z,3.60
2018-03-11T02:19:20.736Z,2.83
2018-03-11T02:21:48.266Z,2.97
2018-03-11T02:24:16.602Z,3.67
2018-03-11T02:26:44.133Z,3.27
2018-03-11T02:29:11.688Z,5.80
2018-03-11T02:31:39.276Z,3.73
2018-03-11T02:34:06.813Z,3.10
2018-03-11T02:36:34.358Z,2.10
2018-03-11T02:39:01.919Z,2.20
2018-03-11T02:41:29.491Z,2.73
2018-03-11T02:43:57.023Z,2.53
2018-03-11T02:46:25.371Z,3.33
2018-03-11T02:48:52.915Z,5.00
2018-03-11T02:51:20.483Z,2.90
2018-03-11T02:53:48.053Z,3.03
2018-03-11T02:56:15.613Z,3.60
2018-03-11T02:58:43.147Z,3.07
2018-03-11T03:01:10.719Z,3.27
2018-03-11T03:03:38.258Z,3.20
2018-03-11T03:06:05.836Z,3.67
2018-03-11T03:08:33.413Z,2.90
2018-03-11T03:11:00.986Z,4.03
2018-03-11T03:13:28.519Z,4.00
2018-03-11T03:15:56.086Z,4.60
2018-03-11T03:18:23.626Z,5.23
2018-03-11T03:20:51.196Z,3.47
2018-03-11T03:23:18.724Z,6.50
2018-03-11T03:25:46.293Z,2.93
2018-03-11T03:28:13.823Z,4.60
2018-03-11T03:30:42.157Z,3.73
2018-03-11T03:33:09.724Z,3.73
2018-03-11T03:35:37.261Z,4.53
2018-03-11T03:38:04.798Z,2.97
2018-03-11T03:40:32.366Z,2.80
2018-03-11T03:42:59.910Z,3.43
2018-03-11T03:45:27.489Z,3.17
2018-03-11T03:47:55.020Z,3.10
2018-03-11T03:50:22.557Z,3.60
2018-03-11T03:52:50.127Z,2.60
2018-03-11T03:55:18.425Z,3.40
2018-03-11T03:57:46.020Z,3.10
2018-03-11T04:00:13.560Z,3.93
2018-03-11T04:02:41.191Z,2.80
2018-03-11T04:05:09.533Z,2.20
2018-03-11T04:07:37.061Z,3.70
2018-03-11T04:10:04.628Z,4.30
2018-03-11T04:12:32.164Z,5.43
2018-03-11T04:14:59.732Z,2.43
2018-03-11T04:17:27.304Z,5.10
2018-03-11T04:19:54.877Z,4.10
2018-03-11T04:22:22.413Z,3.10
2018-03-11T04:24:49.992Z,3.17
2018-03-11T04:27:17.524Z,4.40
2018-03-11T04:29:45.097Z,2.87
2018-03-11T04:32:12.657Z,3.07
2018-03-11T04:34:40.188Z,3.33
2018-03-11T04:37:08.527Z,2.63
2018-03-11T04:39:36.060Z,3.80
2018-03-11T04:42:03.722Z,2.27
2018-03-11T04:44:31.298Z,2.60
2018-03-11T04:46:58.877Z,3.33
2018-03-11T04:49:26.419Z,3.90
2018-03-11T04:51:54.001Z,4.13
2018-03-11T04:54:21.535Z,5.10
2018-03-11T04:56:49.132Z,4.20
2018-03-11T04:59:17.424Z,3.50
2018-03-11T05:01:45.725Z,3.87
2018-03-11T05:04:13.321Z,3.97
2018-03-11T05:06:40.856Z,4.43
2018-03-11T05:09:08.440Z,4.27
2018-03-11T05:11:35.984Z,3.00
2018-03-11T05:14:03.576Z,3.90
2018-03-11T05:16:31.115Z,2.93
2018-03-11T05:18:58.700Z,3.20
2018-03-11T05:21:26.232Z,4.67
2018-03-11T05:23:53.820Z,3.60
2018-03-11T05:26:21.356Z,4.03
2018-03-11T05:28:48.939Z,2.50
2018-03-11T05:31:16.474Z,3.67
2018-03-11T05:33:44.052Z,3.20
2018-03-11T05:36:11.575Z,3.23
2018-03-11T05:38:39.164Z,4.00
2018-03-11T05:41:06.737Z,2.97
2018-03-11T05:43:34.319Z,3.43
2018-03-11T05:46:02.624Z,3.33
2018-03-11T05:48:30.204Z,3.67
2018-03-11T05:50:57.744Z,3.43
2018-03-11T05:53:25.388Z,2.40
2018-03-11T05:55:52.893Z,3.17
2018-03-11T05:58:20.479Z,3.13
2018-03-11T06:00:48.315Z,3.50
2018-03-11T06:03:15.916Z,2.22
2018-03-11T06:05:44.225Z,3.58
2018-03-11T06:08:11.807Z,3.77
2018-03-11T06:10:39.353Z,2.53
2018-03-11T06:13:06.932Z,2.57
2018-03-11T06:15:34.460Z,11.50
2018-03-11T06:18:02.045Z,2.27
2018-03-11T06:20:29.587Z,2.30
2018-03-11T06:22:57.173Z,3.17
2018-03-11T06:25:24.715Z,3.47
2018-03-11T06:27:52.296Z,2.20
2018-03-11T06:30:19.835Z,2.20
2018-03-11T06:32:47.434Z,1.90
2018-03-11T06:35:14.966Z,2.37
2018-03-11T06:37:42.498Z,1.37
2018-03-11T06:40:10.084Z,2.47
2018-03-11T06:42:37.626Z,1.90
2018-03-11T06:45:05.207Z,3.37
2018-03-11T06:47:32.735Z,1.83
2018-03-11T06:50:00.325Z,1.63
2018-03-11T06:52:27.882Z,2.25
2018-03-11T06:54:55.532Z,1.70
2018-03-11T06:57:23.081Z,2.13
2018-03-11T06:59:50.673Z,1.90
2018-03-11T07:02:18.265Z,1.10
2018-03-11T07:04:46.616Z,1.10
2018-03-11T07:07:14.160Z,1.60
2018-03-11T07:09:41.736Z,1.30
2018-03-11T07:12:09.490Z,3.50
2018-03-11T07:14:37.138Z,1.60
2018-03-11T07:17:04.666Z,1.87
2018-03-11T07:19:33.214Z,1.17
2018-03-11T07:22:00.760Z,2.90
2018-03-11T07:24:28.359Z,1.93
2018-03-11T07:26:56.654Z,2.43
2018-03-11T07:29:24.241Z,2.70
2018-03-11T07:31:51.778Z,1.50
2018-03-11T07:34:19.371Z,1.60
2018-03-11T07:36:46.904Z,1.20
2018-03-11T07:39:15.209Z,1.27
2018-03-11T07:41:42.791Z,4.00
2018-03-11T07:44:10.323Z,2.73
2018-03-11T07:46:37.954Z,3.23
2018-03-11T07:49:05.492Z,1.73
2018-03-11T07:54:01.950Z,5.80
2018-03-11T07:56:30.348Z,7.47
2018-03-11T07:58:57.922Z,4.23
2018-03-11T08:01:25.543Z,5.40
2018-03-11T08:03:53.125Z,4.47
2018-03-11T08:06:20.723Z,1.50
2018-03-11T08:08:48.268Z,2.40
2018-03-11T08:11:15.851Z,3.03
2018-03-11T08:13:43.384Z,1.30
2018-03-11T08:16:10.967Z,2.40
2018-03-11T08:18:38.556Z,7.17
2018-03-11T08:21:06.901Z,4.97
2018-03-11T08:23:34.442Z,1.67
2018-03-11T08:26:02.785Z,3.00
2018-03-11T08:28:31.089Z,3.20
2018-03-11T08:30:58.702Z,2.63
2018-03-11T08:33:26.306Z,2.43
2018-03-11T08:35:53.863Z,1.40
2018-03-11T08:38:21.464Z,5.63
2018-03-11T08:40:49.054Z,2.23
2018-03-11T08:43:17.435Z,3.50
2018-03-11T08:45:46.417Z,1.50
2018-03-11T08:48:14.010Z,3.20
2018-03-11T08:50:41.601Z,1.77
2018-03-11T08:53:09.261Z,3.43
2018-03-11T08:55:36.842Z,1.50
2018-03-11T08:58:04.399Z,1.93
2018-03-11T09:00:31.936Z,2.13
2018-03-11T09:02:59.730Z,2.50
2018-03-11T09:05:27.327Z,3.00
2018-03-11T09:07:54.872Z,2.20
2018-03-11T09:10:23.229Z,6.33
2018-03-11T09:12:50.776Z,8.67
2018-03-11T09:15:18.356Z,6.60
2018-03-11T09:17:45.883Z,3.37
2018-03-11T09:20:13.421Z,2.30
2018-03-11T09:22:40.995Z,3.70
2018-03-11T09:25:08.542Z,2.33
2018-03-11T09:27:36.119Z,7.77
2018-03-11T09:30:03.650Z,4.30
2018-03-11T09:32:31.219Z,11.20
2018-03-11T09:34:58.796Z,4.17
2018-03-11T09:37:26.332Z,5.37
2018-03-11T09:39:53.930Z,2.57
2018-03-11T09:42:21.511Z,4.33
2018-03-11T09:44:49.850Z,2.20
2018-03-11T09:47:17.380Z,3.10
2018-03-11T09:49:45.719Z,2.53
2018-03-11T09:52:13.250Z,2.13
2018-03-11T09:54:40.836Z,4.10
2018-03-11T09:57:08.369Z,4.27
2018-03-11T09:59:35.906Z,2.63
2018-03-11T10:02:03.693Z,5.90
2018-03-11T10:04:31.285Z,2.50
2018-03-11T10:06:58.817Z,5.70
2018-03-11T10:09:26.357Z,12.63
2018-03-11T10:11:53.916Z,3.17
2018-03-11T10:14:21.452Z,5.50
2018-03-11T10:16:49.786Z,4.87
2018-03-11T10:19:17.320Z,3.47
2018-03-11T10:21:44.886Z,4.90
2018-03-11T10:24:12.420Z,3.73
2018-03-11T10:26:40.757Z,3.00
2018-03-11T10:29:08.289Z,1.73
2018-03-11T10:31:35.880Z,4.57
2018-03-11T10:34:04.180Z,3.53
2018-03-11T10:36:32.483Z,7.10
2018-03-11T10:39:00.064Z,2.47
2018-03-11T10:41:27.604Z,2.27
2018-03-11T10:43:55.181Z,3.53
2018-03-11T10:46:22.746Z,4.07
2018-03-11T10:48:50.317Z,2.37
2018-03-11T10:51:17.865Z,2.43
2018-03-11T10:53:45.451Z,2.30
2018-03-11T10:56:12.984Z,6.23
2018-03-11T10:58:40.562Z,5.47
2018-03-11T11:01:14.101Z,2.57
2018-03-11T11:03:48.168Z,4.03
2018-03-11T11:06:15.741Z,2.93
2018-03-11T11:08:43.272Z,2.90
2018-03-11T11:11:10.855Z,3.13
2018-03-11T11:13:38.399Z,2.80
2018-03-11T11:16:05.981Z,2.10
2018-03-11T11:18:33.516Z,2.50
2018-03-11T11:21:01.091Z,4.30
2018-03-11T11:23:28.670Z,4.37
2018-03-11T11:25:56.210Z,6.13
2018-03-11T11:28:23.793Z,2.73
2018-03-11T11:30:51.329Z,4.63
2018-03-11T11:33:18.869Z,2.00
2018-03-11T11:35:46.452Z,4.60
2018-03-11T11:38:14.093Z,4.40
2018-03-11T11:40:41.663Z,2.80
2018-03-11T11:43:09.219Z,3.03
2018-03-11T11:45:36.983Z,2.27
2018-03-11T11:48:04.569Z,2.23
2018-03-11T11:50:32.147Z,3.63
2018-03-11T11:52:59.664Z,2.20
2018-03-11T11:55:27.245Z,4.07
2018-03-11T11:57:54.784Z,3.10
2018-03-11T12:00:22.354Z,3.43
2018-03-11T12:02:49.880Z,2.00
2018-03-11T12:05:17.457Z,5.03
2018-03-11T12:07:45.032Z,10.47
2018-03-11T12:10:12.603Z,9.50
2018-03-11T12:12:40.140Z,2.40
2018-03-11T12:15:07.714Z,2.97
2018-03-11T12:17:35.257Z,2.37
2018-03-11T12:20:02.837Z,4.83
2018-03-11T12:22:30.375Z,2.03
2018-03-11T12:24:57.951Z,2.30
2018-03-11T12:27:25.562Z,2.17
2018-03-11T12:29:53.904Z,13.00
2018-03-11T12:32:21.439Z,3.60
2018-03-11T12:34:49.095Z,1.80
2018-03-11T12:37:16.634Z,2.30
2018-03-11T12:39:44.199Z,4.13
2018-03-11T12:42:11.789Z,1.50
2018-03-11T12:44:39.370Z,3.17
2018-03-11T12:47:06.961Z,2.10
2018-03-11T12:49:35.304Z,2.93
2018-03-11T12:52:02.880Z,4.13
2018-03-11T12:54:30.429Z,3.40
2018-03-11T12:56:58.037Z,2.83
2018-03-11T12:59:25.611Z,1.80
2018-03-11T13:01:53.259Z,6.90
2018-03-11T13:04:20.833Z,1.50
2018-03-11T13:06:48.499Z,2.03
2018-03-11T13:09:16.106Z,3.80
2018-03-11T13:11:44.412Z,1.77
2018-03-11T13:14:11.973Z,3.47
2018-03-11T13:16:39.513Z,2.00
2018-03-11T13:19:07.908Z,2.87
2018-03-11T13:21:36.216Z,4.33
2018-03-11T13:24:03.791Z,2.20
2018-03-11T13:26:31.333Z,5.53
2018-03-11T13:28:58.867Z,13.50
2018-03-11T13:31:26.556Z,1.90
2018-03-11T13:34:20.103Z,3.33
2018-03-11T13:36:47.918Z,2.80
2018-03-11T13:39:27.382Z,1.97
2018-03-11T13:41:55.692Z,4.43
2018-03-11T13:44:23.280Z,3.13
2018-03-11T13:47:11.697Z,3.20
2018-03-11T13:49:39.280Z,3.70
2018-03-11T13:52:29.490Z,4.07
2018-03-11T13:54:57.083Z,3.47
2018-03-11T14:00:32.512Z,7.23
2018-03-11T14:03:00.057Z,2.73
2018-03-11T14:05:27.665Z,4.20
2018-03-11T14:07:55.198Z,3.03
2018-03-11T14:10:22.792Z,2.73
2018-03-11T14:12:51.101Z,5.53
2018-03-11T14:15:18.694Z,4.73
2018-03-11T14:17:46.233Z,5.40
2018-03-11T14:20:14.209Z,6.57
2018-03-11T14:22:41.760Z,4.40
2018-03-11T14:25:09.367Z,3.30
2018-03-11T14:27:36.916Z,7.23
2018-03-11T14:30:04.499Z,2.80
2018-03-11T14:32:32.819Z,5.83
2018-03-11T14:35:00.613Z,3.50
2018-03-11T14:37:28.152Z,8.07
2018-03-11T14:39:55.737Z,2.70
2018-03-11T14:42:23.275Z,3.60
2018-03-11T14:44:50.859Z,4.23
2018-03-11T14:47:18.402Z,4.90
2018-03-11T14:49:46.005Z,1.90
2018-03-11T14:52:14.309Z,1.93
2018-03-11T14:54:41.899Z,3.80
2018-03-11T14:57:09.436Z,3.20
2018-03-11T14:59:37.015Z,2.83
2018-03-11T15:02:04.616Z,6.50
2018-03-11T15:04:32.204Z,3.73
2018-03-11T15:06:59.739Z,7.97
2018-03-11T15:09:28.088Z,3.00
2018-03-11T15:11:55.623Z,4.43
2018-03-11T15:14:23.231Z,3.50
2018-03-11T15:16:50.767Z,3.60
2018-03-11T15:19:18.360Z,6.03
2018-03-11T15:21:46.677Z,4.00
2018-03-11T15:24:14.269Z,7.17
2018-03-11T15:26:41.816Z,8.70
2018-03-11T15:29:09.401Z,7.13
2018-03-11T15:31:36.942Z,6.60
2018-03-11T15:34:04.524Z,8.43
2018-03-11T15:36:32.829Z,9.80
2018-03-11T15:39:01.180Z,7.30
2018-03-11T15:41:28.735Z,6.50
2018-03-11T15:43:57.083Z,6.00
2018-03-11T15:46:24.616Z,6.87
2018-03-11T15:48:52.204Z,8.40
2018-03-11T15:51:19.813Z,10.47
2018-03-11T15:53:48.165Z,7.80
2018-03-11T15:56:15.696Z,7.33
2018-03-11T15:58:43.228Z,8.73
2018-03-11T16:01:11.568Z,13.03
2018-03-11T16:03:39.149Z,5.97
2018-03-11T16:06:07.459Z,10.93
2018-03-11T16:08:34.996Z,7.43
2018-03-11T16:11:03.335Z,8.70
2018-03-11T16:13:30.971Z,8.73
2018-03-11T16:15:58.597Z,7.67
2018-03-11T16:18:26.165Z,8.30
2018-03-11T16:20:53.750Z,6.53
2018-03-11T16:23:21.318Z,8.50
2018-03-11T16:25:48.929Z,12.90
2018-03-11T16:28:17.230Z,9.63
2018-03-11T16:30:44.796Z,10.80
2018-03-11T16:33:12.381Z,11.07
2018-03-11T16:35:39.927Z,8.60
2018-03-11T16:38:07.504Z,11.20
2018-03-11T16:40:35.040Z,8.10
2018-03-11T16:43:02.636Z,9.30
2018-03-11T16:45:30.185Z,10.70
2018-03-11T16:47:57.738Z,13.27
2018-03-11T16:50:25.313Z,11.70
2018-03-11T16:52:52.887Z,13.10
2018-03-11T16:55:20.437Z,12.60
2018-03-11T16:57:48.019Z,9.03
2018-03-11T17:00:15.600Z,7.80
2018-03-11T17:02:43.907Z,8.53
2018-03-11T17:05:11.516Z,10.30
2018-03-11T17:07:39.047Z,9.90
2018-03-11T17:10:06.630Z,14.27
2018-03-11T17:12:34.221Z,10.17
2018-03-11T17:15:01.727Z,11.37
2018-03-11T17:17:29.313Z,10.57
2018-03-11T17:19:58.363Z,9.70
2018-03-11T17:22:25.931Z,11.17
2018-03-11T17:24:53.476Z,10.73
2018-03-11T17:27:21.050Z,12.10
2018-03-11T17:29:48.623Z,9.07
2018-03-11T17:32:17.926Z,11.87
2018-03-11T17:34:45.474Z,13.20
2018-03-11T17:37:13.069Z,12.40
2018-03-11T17:39:40.615Z,20.30
2018-03-11T17:42:08.963Z,13.40
2018-03-11T17:44:36.541Z,10.73
2018-03-11T17:47:04.196Z,14.00
2018-03-11T17:49:31.771Z,16.23
2018-03-11T17:51:59.357Z,13.40
2018-03-11T17:54:26.933Z,13.17
2018-03-11T17:56:55.251Z,13.93
2018-03-11T17:59:22.825Z,13.27
2018-03-11T18:01:50.369Z,13.70
2018-03-11T18:04:17.940Z,13.83
2018-03-11T18:06:45.479Z,10.80
2018-03-11T18:09:13.061Z,13.33
2018-03-11T18:11:40.598Z,12.27
2018-03-11T18:14:08.948Z,11.17
2018-03-11T18:16:37.305Z,10.03
2018-03-11T18:19:04.893Z,10.20
2018-03-11T18:21:32.429Z,9.83
2018-03-11T18:24:00.736Z,11.00
2018-03-11T18:26:28.311Z,12.03
2018-03-11T18:28:55.877Z,10.70
2018-03-11T18:31:23.458Z,11.13
2018-03-11T18:33:51.033Z,8.43
2018-03-11T18:36:18.624Z,8.67
2018-03-11T18:38:46.941Z,15.30
2018-03-11T18:41:14.523Z,13.20
2018-03-11T18:43:42.066Z,16.47
2018-03-11T18:46:09.643Z,11.10
2018-03-11T18:48:37.226Z,12.00
2018-03-11T18:51:04.764Z,9.87
2018-03-11T18:53:32.347Z,9.17
2018-03-11T18:56:00.656Z,8.87
2018-03-11T18:58:28.223Z,8.87
2018-03-11T19:00:55.761Z,8.30
2018-03-11T19:03:24.104Z,9.63
2018-03-11T19:05:52.476Z,8.53
2018-03-11T19:08:20.036Z,7.40
2018-03-11T19:10:47.580Z,8.10
2018-03-11T19:13:15.529Z,6.83
2018-03-11T19:15:43.074Z,7.00
2018-03-11T19:18:11.418Z,12.17
2018-03-11T19:20:38.958Z,7.70
2018-03-11T19:23:06.551Z,11.90
2018-03-11T19:25:34.896Z,7.23
2018-03-11T19:28:02.436Z,7.17
2018-03-11T19:30:30.012Z,6.77
2018-03-11T19:32:57.666Z,7.90
2018-03-11T19:35:25.243Z,7.47
2018-03-11T19:37:52.776Z,9.00
2018-03-11T19:40:20.348Z,8.10
2018-03-11T19:42:47.882Z,7.50
2018-03-11T19:45:15.459Z,10.73
2018-03-11T19:47:43.042Z,12.30
2018-03-11T19:50:10.599Z,11.73
2018-03-11T19:52:38.176Z,9.17
2018-03-11T19:55:05.756Z,10.67
2018-03-11T19:57:34.097Z,9.20
2018-03-11T20:00:01.641Z,8.53
2018-03-11T20:02:29.224Z,10.43
2018-03-11T20:04:56.770Z,9.70
2018-03-11T20:07:24.345Z,7.60
2018-03-11T20:09:51.894Z,10.37
2018-03-11T20:12:19.479Z,13.17
2018-03-11T20:14:47.063Z,11.23
2018-03-11T20:17:15.417Z,10.80
2018-03-11T20:19:43.039Z,10.87
2018-03-11T20:22:10.616Z,8.30
2018-03-11T20:24:38.163Z,10.47
2018-03-11T20:27:05.938Z,11.77
2018-03-11T20:29:33.476Z,12.43
2018-03-11T20:32:01.023Z,12.17
2018-03-11T20:34:28.609Z,11.20
2018-03-11T20:36:56.149Z,11.63
2018-03-11T20:39:23.728Z,11.77
2018-03-11T20:41:51.281Z,11.43
2018-03-11T20:44:18.867Z,14.73
2018-03-11T20:46:46.708Z,15.47
2018-03-11T20:49:14.286Z,13.87
2018-03-11T20:51:42.021Z,15.40
2018-03-11T20:54:09.602Z,13.20
2018-03-11T20:56:37.147Z,13.07
2018-03-11T20:59:04.721Z,11.43
2018-03-11T21:01:32.260Z,20.57
2018-03-11T21:03:59.978Z,11.20
2018-03-11T21:06:27.561Z,12.97
2018-03-11T21:08:55.903Z,14.33
2018-03-11T21:11:23.440Z,11.00
2018-03-11T21:13:51.009Z,14.00
2018-03-11T21:16:18.544Z,11.57
2018-03-11T21:18:46.119Z,15.13
2018-03-11T21:21:13.696Z,13.70
2018-03-11T21:23:41.229Z,27.17
2018-03-11T21:26:08.808Z,27.17
2018-03-11T21:28:36.356Z,21.17
2018-03-11T21:31:03.939Z,21.53
2018-03-11T21:33:31.511Z,14.77
2018-03-11T21:35:59.048Z,12.20
2018-03-11T21:38:26.620Z,13.10
2018-03-11T21:40:54.160Z,16.80
2018-03-11T21:43:21.732Z,15.43
2018-03-11T21:45:49.270Z,21.47
2018-03-11T21:48:16.848Z,27.53
2018-03-11T21:50:44.384Z,34.80
2018-03-11T21:53:11.968Z,17.90
2018-03-11T21:55:39.577Z,20.20
2018-03-11T21:58:07.980Z,16.90
2018-03-11T22:00:35.612Z,16.50
2018-03-11T22:03:03.918Z,12.60
2018-03-11T22:05:31.491Z,13.70
2018-03-11T22:07:59.028Z,13.37
2018-03-11T22:10:26.603Z,14.77
2018-03-11T22:12:54.145Z,13.50
2018-03-11T22:15:21.713Z,16.30
2018-03-11T22:17:49.256Z,13.40
2018-03-11T22:20:17.641Z,18.80
2018-03-11T22:22:45.936Z,13.30
2018-03-11T22:25:13.473Z,13.83
2018-03-11T22:27:41.820Z,10.50
2018-03-11T22:30:09.361Z,13.50
2018-03-11T22:32:36.929Z,10.17
2018-03-11T22:35:04.462Z,10.27
2018-03-11T22:37:32.033Z,10.10
2018-03-11T22:39:59.566Z,14.10
2018-03-11T22:42:27.146Z,11.07
2018-03-11T22:44:54.680Z,9.23
2018-03-11T22:47:22.252Z,11.20
2018-03-11T22:49:49.793Z,12.53
2018-03-11T22:52:18.133Z,13.20
2018-03-11T22:54:45.664Z,10.90
2018-03-11T22:57:13.237Z,11.80
2018-03-11T22:59:40.834Z,12.57
2018-03-11T23:02:09.138Z,11.00
2018-03-11T23:04:36.716Z,12.67
2018-03-11T23:07:04.260Z,14.17
2018-03-11T23:09:31.820Z,11.50
2018-03-11T23:11:59.404Z,12.00
2018-03-11T23:14:26.940Z,14.07
2018-03-11T23:16:54.502Z,10.57
2018-03-11T23:19:22.074Z,13.70
2018-03-11T23:21:49.655Z,11.30
2018-03-11T23:24:17.191Z,15.70
2018-03-11T23:26:44.757Z,11.23
2018-03-11T23:29:12.332Z,13.17
2018-03-11T23:31:39.909Z,12.43
2018-03-11T23:34:07.452Z,15.83
2018-03-11T23:36:35.029Z,13.73
2018-03-11T23:39:02.609Z,15.23
2018-03-11T23:41:30.916Z,13.27
2018-03-11T23:43:58.490Z,13.97
2018-03-11T23:46:26.023Z,12.57
2018-03-11T23:48:54.360Z,13.13
2018-03-11T23:51:21.904Z,15.10
2018-03-11T23:53:49.472Z,13.00
2018-03-11T23:56:17.052Z,16.70
2018-03-11T23:58:44.674Z,23.70
